Time;durP1;ratioP1;P1;durP2;ratioP2;P2;SDS_P1;SDS_P2;PMS_P1;PMS_P2;Temp;Humidity;BMP_temperature;BMP_pressure;BME280_temperature;BME280_humidity;BME280_pressure;Samples;Min_cycle;Max_cycle;Signal;HPM_P1;HPM_P2
2022/02/16 00:01:17;;;;;;;37.88;19.48;;;;;;;4.99;50.85;94163.31;5003788;28;20511;-76
2022/02/16 00:03:43;;;;;;;33.97;19.33;;;;;;;5.07;50.68;94162.78;4998114;28;20037;-76
2022/02/16 00:06:08;;;;;;;37.83;19.00;;;;;;;5.01;50.44;94148.03;5009483;28;20412;-76
2022/02/16 00:08:33;;;;;;;33.30;16.27;;;;;;;4.86;50.54;94129.66;5002558;28;20045;-76
2022/02/16 00:10:59;;;;;;;39.03;17.75;;;;;;;4.90;50.74;94156.25;4997085;28;20037;-76
2022/02/16 00:13:25;;;;;;;36.03;17.42;;;;;;;4.86;51.25;94158.63;5000724;28;20053;-76
2022/02/16 00:15:51;;;;;;;40.35;23.58;;;;;;;4.04;51.34;94049.25;5006151;28;20359;-76
2022/02/16 00:18:16;;;;;;;35.05;19.10;;;;;;;4.80;51.42;94154.44;5006360;28;20098;-76
2022/02/16 00:20:42;;;;;;;37.92;19.25;;;;;;;4.86;51.68;94161.28;5000904;28;20076;-77
2022/02/16 00:23:07;;;;;;;34.47;19.40;;;;;;;4.74;51.45;94131.81;4997237;28;20093;-77
2022/02/16 00:25:32;;;;;;;43.63;19.48;;;;;;;4.94;51.01;94136.22;5003612;28;20045;-75
2022/02/16 00:27:58;;;;;;;39.13;16.10;;;;;;;4.14;50.89;94001.06;4995645;28;20033;-76
2022/02/16 00:30:23;;;;;;;31.25;15.82;;;;;;;5.10;50.57;94141.16;5006401;28;20389;-76
2022/02/16 00:32:49;;;;;;;23.75;13.93;;;;;;;5.04;49.97;94107.19;5006933;28;20395;-76
2022/02/16 00:35:14;;;;;;;24.42;13.95;;;;;;;4.94;49.86;94099.31;4989370;28;20594;-76
2022/02/16 00:37:41;;;;;;;29.60;14.18;;;;;;;4.85;50.32;94101.72;4998436;28;20260;-76
2022/02/16 00:40:07;;;;;;;26.33;13.88;;;;;;;4.64;50.65;94103.66;4990698;28;20034;-77
2022/02/16 00:42:33;;;;;;;22.92;13.45;;;;;;;4.27;51.89;94138.19;5003278;28;20489;-76
2022/02/16 00:44:58;;;;;;;26.02;13.40;;;;;;;4.61;51.50;94141.06;4999086;28;20502;-76
2022/02/16 00:47:24;;;;;;;19.30;12.80;;;;;;;4.95;50.10;94143.06;4995695;28;20069;-77
2022/02/16 00:49:49;;;;;;;24.52;12.93;;;;;;;4.93;50.37;94135.44;5004656;28;20052;-77
2022/02/16 00:52:14;;;;;;;36.20;16.13;;;;;;;4.98;50.58;94134.63;4999831;28;21951;-77
2022/02/16 00:54:40;;;;;;;32.42;16.58;;;;;;;5.11;49.59;94134.03;4999722;28;20031;-76
2022/02/16 00:57:06;;;;;;;28.98;16.13;;;;;;;4.99;50.06;94118.53;5005142;28;20025;-77
2022/02/16 00:59:31;;;;;;;32.33;16.55;;;;;;;4.88;50.04;94106.47;5004868;28;20090;-76
2022/02/16 01:01:57;;;;;;;35.47;17.23;;;;;;;4.93;49.79;94113.56;4996692;28;20095;-77
2022/02/16 01:04:24;;;;;;;41.75;18.05;;;;;;;4.94;50.39;94130.97;5008992;28;20053;-76
2022/02/16 01:06:50;;;;;;;31.85;17.25;;;;;;;4.79;50.29;94112.56;4999861;28;20135;-76
2022/02/16 01:09:16;;;;;;;33.03;16.95;;;;;;;4.75;50.54;94117.56;4998452;28;20036;-77
2022/02/16 01:11:41;;;;;;;34.08;18.08;;;;;;;4.67;51.05;94104.94;5001968;28;20034;-76
2022/02/16 01:14:06;;;;;;;33.78;16.42;;;;;;;4.80;51.06;94114.91;4996322;28;20068;-76
2022/02/16 01:16:33;;;;;;;28.77;17.60;;;;;;;4.93;50.76;94124.88;5005741;28;20042;-77
2022/02/16 01:18:59;;;;;;;29.33;17.13;;;;;;;4.92;50.38;94133.84;5001430;28;20045;-76
2022/02/16 01:21:24;;;;;;;31.13;16.83;;;;;;;4.04;50.26;93983.47;4999788;28;20028;-76
2022/02/16 01:23:49;;;;;;;36.92;17.15;;;;;;;5.16;49.77;94127.94;4997467;28;20076;-77
2022/02/16 01:26:17;;;;;;;34.50;18.30;;;;;;;5.00;49.98;94117.47;5000963;28;20376;-77
2022/02/16 01:28:43;;;;;;;33.20;19.23;;;;;;;5.09;49.84;94105.28;5001451;28;20636;-76
2022/02/16 01:31:08;;;;;;;23.95;12.82;;;;;;;4.92;49.84;94081.13;5000039;28;20041;-77
2022/02/16 01:33:34;;;;;;;24.77;12.85;;;;;;;4.87;49.93;94073.25;4998227;28;20151;-77
2022/02/16 01:35:59;;;;;;;21.50;12.98;;;;;;;4.93;49.91;94080.09;5014106;28;20037;-76
2022/02/16 01:38:25;;;;;;;25.60;13.25;;;;;;;5.02;49.60;94069.75;4999391;28;21303;-78
2022/02/16 01:40:50;;;;;;;24.90;13.50;;;;;;;5.20;49.39;94086.78;4993385;28;20491;-76
2022/02/16 01:43:16;;;;;;;28.23;16.27;;;;;;;5.05;50.05;94087.66;5005829;28;20665;-76
2022/02/16 01:45:42;;;;;;;24.70;13.50;;;;;;;5.09;49.86;94068.38;4992691;28;20029;-76
2022/02/16 01:48:07;;;;;;;25.88;13.95;;;;;;;5.01;49.49;94089.25;4998812;28;20029;-77
2022/02/16 01:50:33;;;;;;;27.00;13.63;;;;;;;4.70;50.36;94070.16;5002486;28;20044;-76
2022/02/16 01:52:58;;;;;;;26.20;15.75;;;;;;;4.52;50.93;94049.69;5010041;28;20733;-76
2022/02/16 01:55:24;;;;;;;22.25;13.07;;;;;;;4.61;50.44;94055.97;4997783;28;20100;-76
2022/02/16 01:57:50;;;;;;;30.35;15.15;;;;;;;4.51;51.01;94053.38;5001782;28;20033;-76
2022/02/16 02:00:15;;;;;;;26.70;14.55;;;;;;;4.70;50.55;94057.78;4994055;28;21273;-76
2022/02/16 02:02:42;;;;;;;29.58;14.20;;;;;;;4.72;50.51;94054.06;5004271;28;20084;-76
2022/02/16 02:05:07;;;;;;;24.73;12.48;;;;;;;4.72;50.43;94033.78;4988301;28;20543;-77
2022/02/16 02:07:36;;;;;;;19.98;10.75;;;;;;;4.82;50.35;94039.00;4989445;28;20045;-76
2022/02/16 02:10:03;;;;;;;25.88;11.68;;;;;;;4.87;50.14;94057.44;5007153;28;20369;-74
2022/02/16 02:12:29;;;;;;;19.13;12.95;;;;;;;4.98;49.85;94055.53;4993302;28;20356;-77
2022/02/16 02:14:54;;;;;;;24.40;12.30;;;;;;;5.11;49.10;94037.28;4998898;28;20550;-77
2022/02/16 02:17:19;;;;;;;23.00;12.70;;;;;;;5.01;48.93;94034.69;5001076;28;20092;-77
2022/02/16 02:19:45;;;;;;;21.17;12.63;;;;;;;5.10;48.58;94019.88;5008157;28;20037;-77
2022/02/16 02:22:10;;;;;;;27.15;14.88;;;;;;;5.10;49.30;94062.06;5003816;28;20392;-77
2022/02/16 02:24:36;;;;;;;30.92;14.32;;;;;;;4.79;49.89;94058.03;4996599;28;20037;-76
2022/02/16 02:27:02;;;;;;;26.35;13.40;;;;;;;4.73;50.70;94063.56;5007126;28;20409;-77
2022/02/16 02:29:28;;;;;;;24.83;13.05;;;;;;;4.74;50.64;94067.78;5003497;28;20553;-76
2022/02/16 02:31:53;;;;;;;26.58;12.65;;;;;;;4.62;50.78;94055.69;5009772;28;20033;-77
2022/02/16 02:34:19;;;;;;;25.98;13.23;;;;;;;4.43;50.91;94028.38;5001364;28;20034;-76
2022/02/16 02:36:45;;;;;;;34.97;15.88;;;;;;;4.71;50.62;94055.94;5004537;28;20026;-76
2022/02/16 02:39:11;;;;;;;26.95;14.63;;;;;;;4.57;50.90;94052.28;4998493;28;20503;-76
2022/02/16 02:41:37;;;;;;;30.42;17.13;;;;;;;3.65;51.55;93954.34;5003336;28;20128;-76
2022/02/16 02:44:02;;;;;;;33.28;17.85;;;;;;;4.35;52.05;94050.00;4989983;28;20034;-76
2022/02/16 02:46:28;;;;;;;39.00;18.00;;;;;;;4.45;51.99;94065.00;5004805;28;20125;-76
2022/02/16 02:48:53;;;;;;;33.35;17.42;;;;;;;4.54;51.72;94066.00;5000875;28;20034;-76
2022/02/16 02:51:19;;;;;;;28.63;16.88;;;;;;;4.48;52.09;94067.88;5009406;28;20029;-76
2022/02/16 02:53:45;;;;;;;30.77;18.38;;;;;;;4.70;51.35;94075.41;4998096;28;20740;-76
2022/02/16 02:56:10;;;;;;;36.17;17.42;;;;;;;4.81;50.91;94076.16;4998948;28;20053;-76
2022/02/16 02:58:36;;;;;;;37.92;19.48;;;;;;;4.64;50.59;94061.50;5003177;28;20706;-76
2022/02/16 03:01:03;;;;;;;33.90;18.17;;;;;;;4.81;50.54;94076.16;5021973;28;20042;-76
2022/02/16 03:03:29;;;;;;;30.00;17.70;;;;;;;4.86;50.37;94052.44;4997757;28;20026;-77
2022/02/16 03:05:54;;;;;;;32.63;18.73;;;;;;;4.71;50.43;94045.38;5008066;28;20108;-77
2022/02/16 03:08:20;;;;;;;30.05;17.40;;;;;;;4.88;50.55;94066.94;4999066;28;20048;-76
2022/02/16 03:10:45;;;;;;;39.58;16.17;;;;;;;4.97;50.40;94061.88;5000885;28;20050;-77
2022/02/16 03:13:20;;;;;;;33.15;16.13;;;;;;;5.07;49.52;94052.06;4993327;28;20129;-76
2022/02/16 03:15:50;;;;;;;34.10;17.40;;;;;;;4.92;49.94;94044.25;5019000;28;20448;-77
2022/02/16 03:18:17;;;;;;;37.60;18.73;;;;;;;4.88;50.16;94069.56;4999136;28;20108;-77
2022/02/16 03:20:42;;;;;;;37.80;18.38;;;;;;;4.49;51.13;94063.41;5003169;28;20030;-77
2022/02/16 03:23:09;;;;;;;34.00;18.88;;;;;;;4.58;51.31;94074.94;4992074;28;20048;-76
2022/02/16 03:25:34;;;;;;;34.45;17.67;;;;;;;4.18;52.32;94076.59;4991583;28;20045;-77
2022/02/16 03:28:00;;;;;;;35.30;18.05;;;;;;;3.94;53.21;94059.81;4999604;28;20048;-77
2022/02/16 03:30:25;;;;;;;31.77;18.10;;;;;;;3.86;53.41;94044.56;5000037;28;20033;-76
2022/02/16 03:32:51;;;;;;;33.88;16.90;;;;;;;4.05;53.25;94045.59;4994812;28;20030;-76
2022/02/16 03:35:16;;;;;;;57.80;31.90;;;;;;;4.12;53.25;94069.75;4994338;28;20049;-76
2022/02/16 03:37:41;;;;;;;33.33;19.00;;;;;;;4.04;53.49;94066.88;4991331;28;20586;-76
2022/02/16 03:40:07;;;;;;;55.78;29.95;;;;;;;3.97;53.78;94075.03;4998526;28;20046;-76
2022/02/16 03:42:33;;;;;;;33.63;20.10;;;;;;;3.95;53.96;94061.38;4995576;28;20030;-77
2022/02/16 03:44:59;;;;;;;33.20;16.13;;;;;;;4.16;53.87;94068.19;4996742;28;20049;-77
2022/02/16 03:47:25;;;;;;;33.03;16.38;;;;;;;4.31;53.43;94064.75;5002611;28;20033;-77
2022/02/16 03:49:50;;;;;;;31.92;17.23;;;;;;;4.37;53.28;94058.41;4992882;28;20048;-76
2022/02/16 03:52:15;;;;;;;37.38;19.30;;;;;;;3.30;54.26;94013.00;4999976;28;20574;-76
2022/02/16 03:54:41;;;;;;;38.67;20.10;;;;;;;3.48;55.50;94050.38;4999414;28;20135;-76
2022/02/16 03:57:06;;;;;;;35.72;18.95;;;;;;;3.96;54.94;94052.44;4996615;28;20124;-76
2022/02/16 03:59:32;;;;;;;34.47;18.00;;;;;;;4.25;53.98;94050.81;4994586;28;20069;-76
2022/02/16 04:02:01;;;;;;;32.45;17.10;;;;;;;4.65;53.37;94068.31;5002010;28;20403;-76
2022/02/16 04:04:27;;;;;;;36.58;18.25;;;;;;;4.95;52.36;94064.78;4997287;28;20029;-76
2022/02/16 04:06:52;;;;;;;29.77;17.70;;;;;;;4.78;52.40;94050.38;5003354;28;20022;-76
2022/02/16 04:09:17;;;;;;;39.70;18.98;;;;;;;4.85;52.47;94048.22;4980351;28;20032;-77
2022/02/16 04:11:43;;;;;;;33.60;17.60;;;;;;;5.14;51.91;94052.53;5002569;28;20062;-78
2022/02/16 04:14:08;;;;;;;34.38;15.43;;;;;;;5.37;51.27;94047.66;4992003;28;20053;-77
2022/02/16 04:16:34;;;;;;;27.17;14.75;;;;;;;5.14;51.02;94031.44;5002355;28;20092;-77
2022/02/16 04:18:59;;;;;;;23.98;13.30;;;;;;;5.25;51.35;94041.94;4988251;28;20037;-77
2022/02/16 04:21:25;;;;;;;24.50;14.55;;;;;;;5.14;51.78;94036.72;5004507;28;20524;-75
2022/02/16 04:23:50;;;;;;;32.72;15.60;;;;;;;3.82;54.12;93985.59;4989548;28;20033;-75
2022/02/16 04:26:16;;;;;;;29.83;16.70;;;;;;;4.15;54.93;94039.50;5003704;28;20447;-77
2022/02/16 04:28:41;;;;;;;31.58;17.65;;;;;;;4.76;53.06;94040.09;4992321;28;20527;-77
2022/02/16 04:31:07;;;;;;;26.90;15.85;;;;;;;4.88;52.79;94043.22;4999061;28;20273;-77
2022/02/16 04:33:32;;;;;;;33.97;17.85;;;;;;;4.78;52.93;94022.19;4995171;28;20312;-77
2022/02/16 04:35:58;;;;;;;29.45;15.85;;;;;;;4.92;52.70;94025.00;4989716;28;20036;-76
2022/02/16 04:38:23;;;;;;;28.13;17.30;;;;;;;5.22;51.66;94034.56;4994875;28;20144;-77
2022/02/16 04:40:48;;;;;;;27.75;16.17;;;;;;;5.26;51.43;94022.41;5002965;28;20668;-76
2022/02/16 04:43:14;;;;;;;34.35;18.60;;;;;;;5.27;51.25;94013.44;4991515;28;20125;-77
2022/02/16 04:45:39;;;;;;;32.35;19.10;;;;;;;5.38;50.98;94014.97;4993722;28;20029;-77
2022/02/16 04:48:05;;;;;;;34.30;17.13;;;;;;;5.43;50.99;94036.03;4992136;28;20030;-77
2022/02/16 04:50:32;;;;;;;32.83;17.67;;;;;;;5.51;50.65;94041.50;4985668;28;20041;-77
2022/02/16 04:52:57;;;;;;;30.40;16.80;;;;;;;5.37;50.70;94010.75;4993447;28;20045;-77
2022/02/16 04:55:25;;;;;;;25.83;15.15;;;;;;;5.62;50.31;94041.41;4998063;28;20573;-77
2022/02/16 04:57:51;;;;;;;31.52;15.85;;;;;;;5.50;50.39;94015.38;4999412;28;20041;-77
2022/02/16 05:00:17;;;;;;;25.75;14.10;;;;;;;5.68;50.21;94027.09;4997840;28;21209;-78
2022/02/16 05:02:43;;;;;;;20.45;13.70;;;;;;;5.69;49.46;94004.94;4992669;28;21021;-77
2022/02/16 05:05:08;;;;;;;24.75;13.75;;;;;;;5.68;49.61;94027.88;5003793;28;21287;-77
2022/02/16 05:07:34;;;;;;;26.05;13.68;;;;;;;5.66;49.68;94040.59;4984930;28;20140;-77
2022/02/16 05:10:00;;;;;;;37.10;17.23;;;;;;;5.60;50.29;94043.53;4994214;28;20045;-77
2022/02/16 05:12:25;;;;;;;33.28;16.77;;;;;;;5.62;50.19;94021.09;4994040;28;20427;-77
2022/02/16 05:14:51;;;;;;;27.95;14.52;;;;;;;5.28;50.46;94007.91;5002324;28;20033;-77
2022/02/16 05:17:16;;;;;;;27.27;14.48;;;;;;;5.32;50.63;93995.75;5001804;28;20666;-77
2022/02/16 05:19:42;;;;;;;22.88;14.00;;;;;;;5.37;50.57;94000.19;4993583;28;20460;-77
2022/02/16 05:22:08;;;;;;;22.48;11.50;;;;;;;5.02;50.90;94011.75;4995961;28;20041;-77
2022/02/16 05:24:33;;;;;;;29.45;14.50;;;;;;;3.96;54.10;94004.28;5012351;28;20465;-78
2022/02/16 05:26:59;;;;;;;22.35;13.18;;;;;;;4.77;52.95;94019.81;5003514;28;20141;-77
2022/02/16 05:29:24;;;;;;;22.10;11.80;;;;;;;4.98;52.02;94016.00;4982031;28;20041;-77
2022/02/16 05:31:50;;;;;;;23.95;11.73;;;;;;;5.23;51.63;94030.88;5001342;28;20125;-77
2022/02/16 05:34:16;;;;;;;19.83;12.90;;;;;;;5.43;50.53;94009.66;4994315;28;20102;-78
2022/02/16 05:36:42;;;;;;;22.10;12.35;;;;;;;5.58;50.47;94044.59;4998962;28;20103;-76
2022/02/16 05:39:08;;;;;;;16.92;10.68;;;;;;;5.46;50.54;94035.47;4996615;28;20013;-77
2022/02/16 05:41:33;;;;;;;22.17;11.90;;;;;;;5.32;50.72;94005.50;4999462;28;20052;-76
2022/02/16 05:43:59;;;;;;;22.05;12.07;;;;;;;5.58;49.64;94015.56;5000819;28;20070;-77
2022/02/16 05:46:24;;;;;;;22.83;12.70;;;;;;;5.49;49.97;94024.34;4994098;28;20096;-76
2022/02/16 05:48:50;;;;;;;21.58;13.90;;;;;;;5.21;50.63;94015.31;4998097;28;20060;-76
2022/02/16 05:51:16;;;;;;;23.45;14.27;;;;;;;5.38;50.88;94051.88;4992861;28;20087;-77
2022/02/16 05:53:42;;;;;;;25.90;16.20;;;;;;;5.44;51.11;94042.84;4997870;28;20240;-76
2022/02/16 05:56:07;;;;;;;25.52;15.38;;;;;;;5.39;51.02;94032.34;4996963;28;20768;-77
2022/02/16 05:58:33;;;;;;;22.20;13.57;;;;;;;5.29;51.04;93984.94;4999635;28;20029;-77
2022/02/16 06:01:00;;;;;;;25.10;13.93;;;;;;;5.75;50.45;94025.72;4993742;28;20025;-76
2022/02/16 06:03:25;;;;;;;22.42;14.30;;;;;;;5.82;50.07;94026.19;5014786;28;20025;-76
2022/02/16 06:05:51;;;;;;;29.63;15.38;;;;;;;5.26;50.52;93967.03;4994387;28;20064;-77
2022/02/16 06:08:17;;;;;;;31.77;16.40;;;;;;;5.52;50.94;94037.00;4996417;28;20056;-76
2022/02/16 06:10:42;;;;;;;26.60;15.13;;;;;;;5.71;50.55;94048.47;4998649;28;20037;-76
2022/02/16 06:13:07;;;;;;;32.83;15.55;;;;;;;5.63;50.11;94017.38;4996523;28;20355;-77
2022/02/16 06:15:33;;;;;;;31.20;16.75;;;;;;;5.21;51.33;94041.69;4998873;28;20033;-76
2022/02/16 06:17:58;;;;;;;29.77;17.15;;;;;;;5.43;51.31;94033.38;4994547;28;20060;-77
2022/02/16 06:20:24;;;;;;;30.55;16.45;;;;;;;5.59;50.78;94026.91;4997282;28;20431;-76
2022/02/16 06:22:52;;;;;;;27.23;16.73;;;;;;;5.58;50.91;94046.44;5000756;28;20046;-76
2022/02/16 06:25:18;;;;;;;35.83;18.63;;;;;;;5.74;50.90;94047.91;5000310;28;20494;-77
2022/02/16 06:27:43;;;;;;;33.08;17.42;;;;;;;6.00;49.88;94049.25;4999098;28;20033;-76
2022/02/16 06:30:09;;;;;;;26.77;17.08;;;;;;;6.00;50.04;94048.47;4999898;28;20068;-77
2022/02/16 06:32:34;;;;;;;31.50;18.15;;;;;;;5.99;50.14;94045.03;5006788;28;20499;-76
2022/02/16 06:35:01;;;;;;;30.73;16.63;;;;;;;5.99;50.04;94036.34;4998751;28;20037;-78
2022/02/16 06:37:26;;;;;;;35.55;18.48;;;;;;;6.07;50.04;94053.44;4999239;28;20042;-76
2022/02/16 06:39:52;;;;;;;31.50;17.20;;;;;;;6.09;50.08;94057.34;5003845;28;21763;-75
2022/02/16 06:42:17;;;;;;;34.92;17.58;;;;;;;6.23;49.44;94053.03;5004739;28;20018;-77
2022/02/16 06:44:43;;;;;;;32.67;18.52;;;;;;;6.39;49.35;94056.31;4987459;28;20554;-77
2022/02/16 06:47:08;;;;;;;43.97;21.85;;;;;;;6.27;49.23;94040.03;5002601;28;20079;-77
2022/02/16 06:49:35;;;;;;;35.15;17.80;;;;;;;6.35;48.74;94037.59;4994884;28;20045;-76
2022/02/16 06:52:00;;;;;;;35.38;18.20;;;;;;;6.40;48.60;94052.59;4985139;28;20071;-76
2022/02/16 06:54:25;;;;;;;27.95;18.05;;;;;;;6.28;48.64;94041.63;4999217;28;20144;-77
2022/02/16 06:56:51;;;;;;;32.67;17.45;;;;;;;6.42;48.48;94045.94;4992710;28;20103;-77
2022/02/16 06:59:16;;;;;;;37.63;20.58;;;;;;;5.86;49.03;93994.75;4994722;28;20713;-77
2022/02/16 07:01:42;;;;;;;36.45;18.73;;;;;;;6.51;48.68;94047.97;4980461;28;20853;-77
2022/02/16 07:04:07;;;;;;;30.88;16.42;;;;;;;6.19;48.75;94015.03;4997457;28;20120;-78
2022/02/16 07:06:33;;;;;;;33.15;17.95;;;;;;;6.17;49.08;94026.94;4999359;28;20045;-77
2022/02/16 07:08:58;;;;;;;31.98;17.33;;;;;;;5.86;49.95;94026.44;4997118;28;20499;-77
2022/02/16 07:11:24;;;;;;;32.42;18.58;;;;;;;6.40;49.27;94031.47;4994749;28;20131;-77
2022/02/16 07:13:50;;;;;;;37.00;19.25;;;;;;;6.35;49.03;94013.03;4996318;28;20459;-76
2022/02/16 07:16:15;;;;;;;34.10;19.48;;;;;;;6.37;49.37;94042.56;4999275;28;20426;-76
2022/02/16 07:18:43;;;;;;;33.70;19.42;;;;;;;6.49;48.97;94021.84;4996469;28;20109;-76
2022/02/16 07:21:09;;;;;;;39.72;19.90;;;;;;;6.71;48.63;94040.59;4981911;28;20120;-78
2022/02/16 07:23:36;;;;;;;39.53;21.90;;;;;;;6.05;49.48;94018.59;4973243;28;20461;-77
2022/02/16 07:26:01;;;;;;;45.13;20.35;;;;;;;6.49;49.27;94047.47;4973705;28;20034;-77
2022/02/16 07:28:26;;;;;;;38.92;20.15;;;;;;;6.60;48.79;94020.66;4987674;28;20431;-77
2022/02/16 07:30:52;;;;;;;39.90;20.23;;;;;;;5.80;50.67;94049.44;4991162;28;20068;-76
2022/02/16 07:33:17;;;;;;;42.03;19.17;;;;;;;6.34;49.99;94043.94;4990483;28;20038;-77
2022/02/16 07:35:43;;;;;;;33.00;20.48;;;;;;;6.48;49.72;94038.75;4987795;28;20038;-78
2022/02/16 07:38:08;;;;;;;42.38;22.02;;;;;;;6.72;48.85;94034.25;4979276;28;20327;-77
2022/02/16 07:40:34;;;;;;;47.00;21.08;;;;;;;6.76;48.52;94035.25;4984232;28;20050;-76
2022/02/16 07:42:59;;;;;;;38.78;20.67;;;;;;;5.76;49.75;93971.88;4976416;28;20038;-76
2022/02/16 07:45:25;;;;;;;45.95;23.08;;;;;;;6.53;49.51;94030.78;4981934;28;20136;-76
2022/02/16 07:47:50;;;;;;;42.38;21.23;;;;;;;6.39;49.57;94014.03;4981273;28;20052;-77
2022/02/16 07:50:16;;;;;;;45.90;21.95;;;;;;;5.89;50.11;94004.75;4973870;28;20566;-77
2022/02/16 07:52:41;;;;;;;50.40;21.52;;;;;;;6.33;48.75;93981.59;4980014;28;20458;-77
2022/02/16 07:55:07;;;;;;;42.70;22.00;;;;;;;6.62;49.00;94034.38;4980794;28;20049;-77
2022/02/16 07:57:33;;;;;;;67.38;36.53;;;;;;;6.94;48.18;94035.56;4987829;28;20053;-77
2022/02/16 07:59:58;;;;;;;45.08;23.50;;;;;;;6.67;48.77;94009.72;4980719;28;20125;-77
2022/02/16 08:02:24;;;;;;;63.08;35.95;;;;;;;6.75;48.51;94009.13;4976710;28;20315;-77
2022/02/16 08:04:49;;;;;;;49.80;25.38;;;;;;;6.94;48.61;94011.78;4983411;28;20306;-76
2022/02/16 08:07:14;;;;;;;44.15;24.20;;;;;;;6.67;49.06;94010.53;4974709;28;20324;-78
2022/02/16 08:09:40;;;;;;;44.70;21.35;;;;;;;6.74;48.86;94018.91;4984150;28;20524;-76
2022/02/16 08:12:05;;;;;;;36.88;21.20;;;;;;;6.71;48.56;94006.22;4978404;28;20073;-77
2022/02/16 08:14:33;;;;;;;47.50;21.45;;;;;;;6.55;48.54;93996.16;4979029;28;20046;-77
2022/02/16 08:17:03;;;;;;;35.97;20.77;;;;;;;6.39;49.27;94004.25;4978726;28;20402;-77
2022/02/16 08:19:29;;;;;;;41.05;21.02;;;;;;;6.75;48.73;93990.63;4975936;28;20042;-77
2022/02/16 08:21:56;;;;;;;39.38;22.35;;;;;;;6.71;48.59;94014.16;4977876;28;20417;-77
2022/02/16 08:24:22;;;;;;;47.83;21.38;;;;;;;6.76;48.10;94014.09;4980981;28;20658;-77
2022/02/16 08:26:48;;;;;;;35.40;20.35;;;;;;;7.16;47.43;94011.97;4977320;28;20671;-77
2022/02/16 08:29:15;;;;;;;37.42;20.85;;;;;;;7.41;47.21;94018.78;4973241;28;20042;-76
2022/02/16 08:31:41;;;;;;;36.72;20.45;;;;;;;7.25;47.56;94018.19;4980825;28;20050;-77
2022/02/16 08:34:07;;;;;;;36.13;21.38;;;;;;;6.62;48.78;94002.66;4993179;28;20933;-77
2022/02/16 08:36:32;;;;;;;38.80;21.85;;;;;;;6.25;49.64;93986.72;4988866;28;20014;-77
2022/02/16 08:38:58;;;;;;;43.25;22.77;;;;;;;6.42;48.66;93937.63;4980758;28;20038;-77
2022/02/16 08:41:23;;;;;;;36.28;20.25;;;;;;;6.84;48.65;94000.28;4978241;28;20030;-77
2022/02/16 08:43:48;;;;;;;41.75;23.60;;;;;;;6.84;48.86;94004.78;4975121;28;21177;-77
2022/02/16 08:46:14;;;;;;;39.42;20.50;;;;;;;7.22;47.49;93994.97;4982202;28;20649;-76
2022/02/16 08:48:40;;;;;;;37.00;19.42;;;;;;;6.75;47.46;93964.94;4972516;28;20524;-77
2022/02/16 08:51:06;;;;;;;38.88;21.15;;;;;;;6.24;49.63;93985.16;4976159;28;20043;-76
2022/02/16 08:53:31;;;;;;;37.17;22.38;;;;;;;5.47;51.40;93973.72;4980853;28;20125;-76
2022/02/16 08:56:00;;;;;;;43.63;22.55;;;;;;;5.72;52.20;93970.88;4969565;28;20096;-76
2022/02/16 08:58:27;;;;;;;38.55;21.05;;;;;;;5.67;52.38;93980.69;4976196;28;20037;-76
2022/02/16 09:00:53;;;;;;;43.47;23.50;;;;;;;5.93;51.98;93990.72;4982786;28;20355;-76
2022/02/16 09:03:19;;;;;;;42.28;22.88;;;;;;;4.94;53.04;93938.56;4971753;28;20437;-77
2022/02/16 09:05:44;;;;;;;45.70;24.27;;;;;;;6.12;52.28;93992.63;4979891;28;20126;-76
2022/02/16 09:08:10;;;;;;;36.85;21.85;;;;;;;5.53;53.66;93981.31;4981438;28;20038;-75
2022/02/16 09:10:35;;;;;;;43.15;21.77;;;;;;;5.62;53.28;93955.13;4986880;28;20050;-77
2022/02/16 09:13:00;;;;;;;48.10;22.80;;;;;;;6.11;51.34;93976.03;4970730;28;20821;-79
2022/02/16 09:15:27;;;;;;;40.90;23.08;;;;;;;5.42;52.63;93966.66;4979291;28;20026;-77
2022/02/16 09:17:54;;;;;;;37.63;20.60;;;;;;;5.36;53.11;93974.88;4975150;28;20397;-77
2022/02/16 09:20:19;;;;;;;41.85;21.08;;;;;;;5.23;53.09;93964.97;4988493;28;20543;-77
2022/02/16 09:22:44;;;;;;;45.78;21.83;;;;;;;5.35;53.56;93970.66;4976211;28;20042;-77
2022/02/16 09:25:10;;;;;;;38.47;20.25;;;;;;;6.02;52.51;93986.38;4987607;28;20166;-77
2022/02/16 09:27:36;;;;;;;30.33;15.10;;;;;;;5.99;50.42;93917.53;4983508;28;20670;-77
2022/02/16 09:30:03;;;;;;;34.75;16.65;;;;;;;6.46;49.75;93982.00;4999550;28;20049;-77
2022/02/16 09:32:28;;;;;;;32.80;17.45;;;;;;;6.61;49.24;93974.66;4998772;28;20053;-76
2022/02/16 09:34:55;;;;;;;27.65;14.88;;;;;;;6.91;48.47;93952.31;5005456;28;20038;-77
2022/02/16 09:37:21;;;;;;;24.35;14.82;;;;;;;6.41;49.36;93972.25;4996139;28;20046;-77
2022/02/16 09:39:47;;;;;;;31.42;16.00;;;;;;;6.51;49.65;93968.69;5000176;28;20040;-76
2022/02/16 09:42:12;;;;;;;33.45;17.13;;;;;;;6.58;49.82;93969.16;4992842;28;20021;-77
2022/02/16 09:45:01;;;;;;;30.55;16.10;;;;;;;6.94;48.97;93969.47;5005698;28;20047;-77
2022/02/16 09:47:28;;;;;;;40.70;17.23;;;;;;;6.70;49.72;93957.09;4998433;28;20615;-77
2022/02/16 09:49:54;;;;;;;33.97;19.23;;;;;;;6.72;49.53;93965.53;5001911;28;20088;-76
2022/02/16 09:52:20;;;;;;;29.10;17.27;;;;;;;7.09;49.38;93964.72;4993654;28;20678;-77
2022/02/16 09:54:45;;;;;;;32.33;17.88;;;;;;;7.34;48.20;93960.16;5004957;28;20040;-77
2022/02/16 09:57:12;;;;;;;34.97;17.20;;;;;;;6.93;48.81;93965.25;4996086;28;20295;-76
2022/02/16 09:59:37;;;;;;;34.40;16.75;;;;;;;6.96;49.06;93951.44;5007798;28;20045;-77
2022/02/16 10:02:09;;;;;;;26.92;15.48;;;;;;;7.22;48.53;93955.28;4999679;28;20496;-77
2022/02/16 10:04:36;;;;;;;30.63;15.25;;;;;;;7.63;47.92;93945.59;5013453;28;20555;-77
2022/02/16 10:07:19;;;;;;;32.05;16.42;;;;;;;7.39;47.44;93944.97;5009235;28;20374;-76
2022/02/16 10:09:44;;;;;;;33.95;18.17;;;;;;;7.08;47.97;93918.22;4999516;28;20033;-77
2022/02/16 10:12:10;;;;;;;31.63;17.42;;;;;;;7.10;48.35;93944.34;4998638;28;20088;-77
2022/02/16 10:14:38;;;;;;;36.53;18.73;;;;;;;7.24;47.99;93943.34;5002073;28;20741;-76
2022/02/16 10:17:15;;;;;;;33.63;17.73;;;;;;;7.30;48.32;93939.53;5003628;28;20045;-76
2022/02/16 10:19:52;;;;;;;38.13;20.83;;;;;;;7.17;48.81;93918.34;5005117;28;20107;-77
2022/02/16 10:22:19;;;;;;;43.42;23.38;;;;;;;7.75;47.85;93939.88;4996770;28;22672;-77
2022/02/16 10:24:45;;;;;;;33.50;18.95;;;;;;;8.03;46.55;93927.47;4998207;28;20029;-76
2022/02/16 10:27:12;;;;;;;39.47;20.90;;;;;;;8.35;46.69;93906.16;4998064;28;20491;-77
2022/02/16 10:29:39;;;;;;;37.25;21.02;;;;;;;8.51;45.80;93915.34;4999572;28;20040;-76
2022/02/16 10:32:05;;;;;;;38.65;21.17;;;;;;;8.11;46.07;93889.72;5006328;28;20045;-77
2022/02/16 10:34:50;;;;;;;39.22;20.77;;;;;;;8.10;45.88;93914.63;4990457;28;20042;-78
2022/02/16 10:37:18;;;;;;;40.30;19.83;;;;;;;8.51;45.80;93904.00;4998172;28;20125;-77
2022/02/16 10:40:12;;;;;;;44.78;22.65;;;;;;;8.53;45.57;93891.22;5002242;28;20060;-77
2022/02/16 10:42:39;;;;;;;44.80;21.13;;;;;;;8.48;46.18;93894.75;4991249;28;20041;-77
2022/02/16 10:45:11;;;;;;;40.72;21.45;;;;;;;8.80;45.58;93893.03;5008665;28;20041;-77
2022/02/16 10:48:08;;;;;;;43.20;21.17;;;;;;;8.48;45.79;93878.84;4993255;28;20420;-77
2022/02/16 10:50:45;;;;;;;45.13;21.75;;;;;;;8.79;45.70;93878.19;4982942;28;20438;-76
2022/02/16 10:53:10;;;;;;;45.03;24.83;;;;;;;8.28;46.79;93873.97;5003307;28;20045;-77
2022/02/16 10:55:47;;;;;;;45.55;23.73;;;;;;;8.74;45.82;93852.56;4999061;28;20046;-76
2022/02/16 10:58:15;;;;;;;44.60;23.80;;;;;;;8.13;46.75;93842.50;4996288;28;20042;-76
2022/02/16 11:00:43;;;;;;;44.63;25.15;;;;;;;8.50;46.81;93860.81;5010837;28;20597;-77
2022/02/16 11:03:10;;;;;;;38.95;20.15;;;;;;;8.81;45.97;93844.19;4993142;28;20353;-77
2022/02/16 11:05:41;;;;;;;42.97;22.10;;;;;;;8.52;45.83;93836.63;5016116;28;20057;-77
2022/02/16 11:08:12;;;;;;;32.15;16.67;;;;;;;8.86;45.15;93836.09;5005274;28;20171;-78
2022/02/16 11:10:40;;;;;;;23.92;12.90;;;;;;;8.81;44.22;93834.38;5006264;28;20046;-77
2022/02/16 11:13:07;;;;;;;30.65;14.07;;;;;;;8.99;44.16;93801.59;4997669;28;20017;-78
2022/02/16 11:15:33;;;;;;;20.42;11.93;;;;;;;9.49;42.74;93813.91;5007411;28;20029;-77
2022/02/16 11:18:21;;;;;;;25.38;12.50;;;;;;;9.99;43.72;93831.09;5007264;28;20038;-77
2022/02/16 11:21:10;;;;;;;27.20;13.43;;;;;;;9.76;42.87;93817.13;5016828;28;20129;-77